createdAt,value
2017-08-15T00:01:17.138Z,19.80
2017-08-15T00:03:44.656Z,19.80
2017-08-15T00:06:12.145Z,19.70
2017-08-15T00:08:40.026Z,19.70
2017-08-15T00:11:07.542Z,19.60
2017-08-15T00:13:35.071Z,19.60
2017-08-15T00:16:02.720Z,19.50
2017-08-15T00:18:30.222Z,19.50
2017-08-15T00:20:57.720Z,19.60
2017-08-15T00:23:25.214Z,19.50
2017-08-15T00:25:53.496Z,19.50
2017-08-15T00:28:21.777Z,19.50
2017-08-15T00:30:49.361Z,19.50
2017-08-15T00:33:16.885Z,19.50
2017-08-15T00:35:45.143Z,19.50
2017-08-15T00:38:12.623Z,19.40
2017-08-15T00:40:40.907Z,19.40
2017-08-15T00:43:08.422Z,19.40
2017-08-15T00:45:35.925Z,19.40
2017-08-15T00:48:03.417Z,19.40
2017-08-15T00:50:31.035Z,19.30
2017-08-15T00:52:58.567Z,19.20
2017-08-15T00:55:26.059Z,19.20
2017-08-15T00:57:54.454Z,19.10
2017-08-15T01:00:22.140Z,19.10
2017-08-15T01:02:49.702Z,19.20
2017-08-15T01:05:17.461Z,19.10
2017-08-15T01:07:44.992Z,19.10
2017-08-15T01:10:13.262Z,19.00
2017-08-15T01:12:41.538Z,19.00
2017-08-15T01:15:09.773Z,18.90
2017-08-15T01:17:37.279Z,18.90
2017-08-15T01:20:04.835Z,18.90
2017-08-15T01:22:32.327Z,18.80
2017-08-15T01:24:59.816Z,18.80
2017-08-15T01:27:27.418Z,18.70
2017-08-15T01:29:55.010Z,18.70
2017-08-15T01:32:22.501Z,18.70
2017-08-15T01:34:49.997Z,18.70
2017-08-15T01:37:17.513Z,18.70
2017-08-15T01:39:45.045Z,18.70
2017-08-15T01:42:12.542Z,18.70
2017-08-15T01:44:40.726Z,18.70
2017-08-15T01:47:09.496Z,18.80
2017-08-15T01:49:39.288Z,18.80
2017-08-15T01:52:06.792Z,18.70
2017-08-15T01:54:35.049Z,18.70
2017-08-15T01:57:02.567Z,18.70
2017-08-15T01:59:30.121Z,18.70
2017-08-15T02:01:57.616Z,18.70
2017-08-15T02:04:25.153Z,18.60
2017-08-15T02:06:52.680Z,18.70
2017-08-15T02:09:20.193Z,18.60
2017-08-15T02:11:47.734Z,18.60
2017-08-15T02:14:15.246Z,18.50
2017-08-15T02:16:43.523Z,18.50
2017-08-15T02:19:11.053Z,18.50
2017-08-15T02:21:38.566Z,18.50
2017-08-15T02:24:06.059Z,18.50
2017-08-15T02:26:33.553Z,18.50
2017-08-15T02:29:01.057Z,18.50
2017-08-15T02:31:28.532Z,18.40
2017-08-15T02:33:56.068Z,18.40
2017-08-15T02:36:23.590Z,18.40
2017-08-15T02:38:51.081Z,18.40
2017-08-15T02:41:18.589Z,18.40
2017-08-15T02:43:46.082Z,18.30
2017-08-15T02:46:13.624Z,18.20
2017-08-15T02:48:41.134Z,18.20
2017-08-15T02:51:08.721Z,18.20
2017-08-15T02:53:36.255Z,18.20
2017-08-15T02:56:03.770Z,18.10
2017-08-15T02:58:32.069Z,18.00
2017-08-15T03:00:59.587Z,18.00
2017-08-15T03:03:27.110Z,18.10
2017-08-15T03:05:54.605Z,18.00
2017-08-15T03:08:22.126Z,18.00
2017-08-15T03:10:49.624Z,18.00
2017-08-15T03:13:17.109Z,18.00
2017-08-15T03:15:44.651Z,18.00
2017-08-15T03:18:12.178Z,18.00
2017-08-15T03:20:39.674Z,17.90
2017-08-15T03:23:07.252Z,17.90
2017-08-15T03:25:35.529Z,17.80
2017-08-15T03:28:03.809Z,17.70
2017-08-15T03:30:31.382Z,17.70
2017-08-15T03:32:58.900Z,17.70
2017-08-15T03:35:27.178Z,17.70
2017-08-15T03:37:54.684Z,17.70
2017-08-15T03:40:22.195Z,17.70
2017-08-15T03:42:49.699Z,17.70
2017-08-15T03:45:17.190Z,17.60
2017-08-15T03:47:44.728Z,17.70
2017-08-15T03:50:12.261Z,17.60
2017-08-15T03:52:39.751Z,17.60
2017-08-15T03:55:07.288Z,17.70
2017-08-15T03:57:34.788Z,17.70
2017-08-15T04:00:02.283Z,17.60
2017-08-15T04:02:29.782Z,17.50
2017-08-15T04:04:57.301Z,17.50
2017-08-15T04:07:25.573Z,17.50
2017-08-15T04:09:53.841Z,17.50
2017-08-15T04:12:21.865Z,17.50
2017-08-15T04:14:49.354Z,17.50
2017-08-15T04:17:16.979Z,17.60
2017-08-15T04:19:44.492Z,17.50
2017-08-15T04:22:12.002Z,17.50
2017-08-15T04:24:39.495Z,17.50
2017-08-15T04:27:06.991Z,17.40
2017-08-15T04:29:34.504Z,17.50
2017-08-15T04:32:02.010Z,17.60
2017-08-15T04:34:29.513Z,17.60
2017-08-15T04:36:57.119Z,17.70
2017-08-15T04:39:25.397Z,17.70
2017-08-15T04:41:53.675Z,17.70
2017-08-15T04:44:22.035Z,17.70
2017-08-15T04:46:49.558Z,17.70
2017-08-15T04:49:17.070Z,17.80
2017-08-15T04:51:45.342Z,17.70
2017-08-15T04:54:13.630Z,17.80
2017-08-15T04:56:42.077Z,17.80
2017-08-15T04:59:09.578Z,17.80
2017-08-15T05:01:37.112Z,17.80
2017-08-15T05:04:04.733Z,17.90
2017-08-15T05:06:32.241Z,17.90
2017-08-15T05:08:59.776Z,17.90
2017-08-15T05:11:27.319Z,18.10
2017-08-15T05:13:54.811Z,18.20
2017-08-15T05:16:22.316Z,18.40
2017-08-15T05:18:49.854Z,18.50
2017-08-15T05:21:18.158Z,18.60
2017-08-15T05:23:45.690Z,18.60
2017-08-15T05:26:13.216Z,18.60
2017-08-15T05:28:40.751Z,18.50
2017-08-15T05:31:08.237Z,18.50
2017-08-15T05:33:35.753Z,18.40
2017-08-15T05:36:03.284Z,18.50
2017-08-15T05:38:30.811Z,18.40
2017-08-15T05:40:58.300Z,18.40
2017-08-15T05:43:25.833Z,18.50
2017-08-15T05:45:53.374Z,18.40
2017-08-15T05:48:20.867Z,18.40
2017-08-15T05:50:48.374Z,18.40
2017-08-15T05:53:15.867Z,18.50
2017-08-15T05:55:43.394Z,18.40
2017-08-15T05:58:10.911Z,18.40
2017-08-15T06:00:38.387Z,18.40
2017-08-15T06:03:05.983Z,18.40
2017-08-15T06:05:33.478Z,18.50
2017-08-15T06:08:00.966Z,18.50
2017-08-15T06:10:28.491Z,18.70
2017-08-15T06:12:55.981Z,18.80
2017-08-15T06:15:23.483Z,18.80
2017-08-15T06:17:50.982Z,18.80
2017-08-15T06:20:18.500Z,18.70
2017-08-15T06:22:46.090Z,18.80
2017-08-15T06:25:13.667Z,18.90
2017-08-15T06:27:41.960Z,19.00
2017-08-15T06:30:09.487Z,19.00
2017-08-15T06:32:37.096Z,19.10
2017-08-15T06:35:04.633Z,19.20
2017-08-15T06:37:32.172Z,19.20
2017-08-15T06:39:59.651Z,19.20
2017-08-15T06:42:28.353Z,19.20
2017-08-15T06:44:55.870Z,19.20
2017-08-15T06:47:24.421Z,19.30
2017-08-15T06:49:51.994Z,19.40
2017-08-15T06:52:19.507Z,19.50
2017-08-15T06:54:47.045Z,19.50
2017-08-15T06:57:15.341Z,19.50
2017-08-15T06:59:42.849Z,19.50
2017-08-15T07:02:10.353Z,19.60
2017-08-15T07:04:37.858Z,19.70
2017-08-15T07:07:05.372Z,19.70
2017-08-15T07:09:32.910Z,19.70
2017-08-15T07:12:00.400Z,19.70
2017-08-15T07:14:27.932Z,19.80
2017-08-15T07:16:56.357Z,20.00
2017-08-15T07:19:23.863Z,20.00
2017-08-15T07:21:51.370Z,20.10
2017-08-15T07:24:18.854Z,20.20
2017-08-15T07:26:46.448Z,20.20
2017-08-15T07:29:14.033Z,20.30
2017-08-15T07:31:41.533Z,20.50
2017-08-15T07:34:09.042Z,20.40
2017-08-15T07:36:37.301Z,20.60
2017-08-15T07:39:04.935Z,20.60
2017-08-15T07:41:32.428Z,20.70
2017-08-15T07:44:00.731Z,20.80
2017-08-15T07:46:28.269Z,20.80
2017-08-15T07:48:55.767Z,20.80
2017-08-15T07:51:23.267Z,20.90
2017-08-15T07:53:50.770Z,20.90
2017-08-15T07:56:18.280Z,21.10
2017-08-15T07:58:45.836Z,21.10
2017-08-15T08:01:13.338Z,21.30
2017-08-15T08:03:40.854Z,21.40
2017-08-15T08:06:08.361Z,21.40
2017-08-15T08:08:35.870Z,21.60
2017-08-15T08:11:03.402Z,21.50
2017-08-15T08:13:30.932Z,21.50
2017-08-15T08:15:58.421Z,21.70
2017-08-15T08:18:25.955Z,21.80
2017-08-15T08:20:53.467Z,22.00
2017-08-15T08:23:20.968Z,22.20
2017-08-15T08:25:48.565Z,22.30
2017-08-15T08:28:16.080Z,22.50
2017-08-15T08:30:43.603Z,22.40
2017-08-15T08:33:11.094Z,22.60
2017-08-15T08:35:39.372Z,22.90
2017-08-15T08:38:07.688Z,23.00
2017-08-15T08:40:35.198Z,23.00
2017-08-15T08:43:02.699Z,23.00
2017-08-15T08:45:30.211Z,23.10
2017-08-15T08:47:57.719Z,23.20
2017-08-15T08:50:25.238Z,23.20
2017-08-15T08:52:52.762Z,23.20
2017-08-15T08:55:20.262Z,23.10
2017-08-15T08:57:48.542Z,23.30
2017-08-15T09:00:16.822Z,23.30
2017-08-15T09:02:45.107Z,23.40
2017-08-15T09:05:12.624Z,23.40
2017-08-15T09:07:40.134Z,23.40
2017-08-15T09:10:07.635Z,23.40
2017-08-15T09:12:35.182Z,23.50
2017-08-15T09:15:02.708Z,23.60
2017-08-15T09:17:30.214Z,23.70
2017-08-15T09:19:57.729Z,23.70
2017-08-15T09:22:25.228Z,23.90
2017-08-15T09:24:52.724Z,23.90
2017-08-15T09:27:20.284Z,24.10
2017-08-15T09:29:48.542Z,24.40
2017-08-15T09:32:16.186Z,24.30
2017-08-15T09:34:43.689Z,24.50
2017-08-15T09:37:11.950Z,24.80
2017-08-15T09:39:40.247Z,24.90
2017-08-15T09:42:08.620Z,24.90
2017-08-15T09:44:36.184Z,24.90
2017-08-15T09:47:04.450Z,25.10
2017-08-15T09:49:32.764Z,25.20
2017-08-15T09:52:00.272Z,25.20
2017-08-15T09:54:27.797Z,25.30
2017-08-15T09:56:55.301Z,25.50
2017-08-15T09:59:22.944Z,25.80
2017-08-15T10:01:50.547Z,26.00
2017-08-15T10:04:18.071Z,26.20
2017-08-15T10:06:45.552Z,26.30
2017-08-15T10:09:13.853Z,26.40
2017-08-15T10:11:41.335Z,26.40
2017-08-15T10:14:09.779Z,26.60
2017-08-15T10:16:37.318Z,26.90
2017-08-15T10:19:04.814Z,26.90
2017-08-15T10:21:32.324Z,27.10
2017-08-15T10:23:59.961Z,27.10
2017-08-15T10:26:27.460Z,27.20
2017-08-15T10:28:55.723Z,27.10
2017-08-15T10:31:23.256Z,27.10
2017-08-15T10:33:50.800Z,27.40
2017-08-15T10:36:18.308Z,27.50
2017-08-15T10:38:45.805Z,27.70
2017-08-15T10:41:13.324Z,28.50
2017-08-15T10:43:40.853Z,30.30
2017-08-15T10:46:08.531Z,32.30
2017-08-15T10:48:36.040Z,34.20
2017-08-15T10:51:03.542Z,35.50
2017-08-15T10:53:31.080Z,36.40
2017-08-15T10:55:58.909Z,37.40
2017-08-15T10:58:26.433Z,38.30
2017-08-15T11:00:53.937Z,39.30
2017-08-15T11:03:21.422Z,40.20
2017-08-15T11:05:48.984Z,39.40
2017-08-15T11:08:16.508Z,39.50
2017-08-15T11:10:44.924Z,38.10
2017-08-15T11:13:12.413Z,38.10
2017-08-15T11:15:39.923Z,38.30
2017-08-15T11:18:07.406Z,38.00
2017-08-15T11:20:34.919Z,39.60
2017-08-15T11:23:02.457Z,40.70
2017-08-15T11:25:29.990Z,42.00
2017-08-15T11:27:57.595Z,42.70
2017-08-15T11:30:25.935Z,43.70
2017-08-15T11:32:53.489Z,43.60
2017-08-15T11:35:21.141Z,44.70
2017-08-15T11:37:48.621Z,45.30
2017-08-15T11:40:16.111Z,45.60
2017-08-15T11:42:44.489Z,47.20
2017-08-15T11:45:11.992Z,47.10
2017-08-15T11:47:39.504Z,47.50
2017-08-15T11:50:07.020Z,47.80
2017-08-15T11:52:34.553Z,48.00
2017-08-15T11:55:02.076Z,47.10
2017-08-15T11:57:29.553Z,46.30
2017-08-15T11:59:57.819Z,46.10
2017-08-15T12:02:25.292Z,46.10
2017-08-15T12:04:53.555Z,42.20
2017-08-15T12:07:21.864Z,40.10
2017-08-15T12:09:49.842Z,40.00
2017-08-15T12:12:17.330Z,38.20
2017-08-15T12:14:44.806Z,37.70
2017-08-15T12:17:12.423Z,38.30
2017-08-15T12:19:39.932Z,39.60
2017-08-15T12:22:07.502Z,41.10
2017-08-15T12:24:35.038Z,42.50
2017-08-15T12:27:02.599Z,43.30
2017-08-15T12:29:30.098Z,43.80
2017-08-15T12:31:57.575Z,43.80
2017-08-15T12:34:25.071Z,42.90
2017-08-15T12:36:52.609Z,41.40
2017-08-15T12:39:20.092Z,40.90
2017-08-15T12:41:47.572Z,40.60
2017-08-15T12:44:15.120Z,40.10
2017-08-15T12:46:42.617Z,39.70
2017-08-15T12:49:10.107Z,39.10
2017-08-15T12:51:37.642Z,38.20
2017-08-15T12:54:05.138Z,37.50
2017-08-15T12:56:32.632Z,37.10
2017-08-15T12:59:00.443Z,36.80
2017-08-15T13:01:28.010Z,36.70
2017-08-15T13:03:56.755Z,36.00
2017-08-15T13:06:24.260Z,35.70
2017-08-15T13:08:51.768Z,35.30
2017-08-15T13:11:19.290Z,35.30
2017-08-15T13:13:46.818Z,35.70
2017-08-15T13:16:14.308Z,36.30
2017-08-15T13:18:41.869Z,37.10
2017-08-15T13:21:09.461Z,38.00
2017-08-15T13:23:37.737Z,40.70
2017-08-15T13:26:05.994Z,41.30
2017-08-15T13:28:33.519Z,41.30
2017-08-15T13:31:01.008Z,40.90
2017-08-15T13:33:28.550Z,40.60
2017-08-15T13:35:56.033Z,40.40
2017-08-15T13:38:23.527Z,39.90
2017-08-15T13:40:51.804Z,38.20
2017-08-15T13:43:19.292Z,38.20
2017-08-15T13:45:46.791Z,37.20
2017-08-15T13:48:14.285Z,36.60
2017-08-15T13:50:41.786Z,36.00
2017-08-15T13:53:09.271Z,35.30
2017-08-15T13:55:36.779Z,34.90
2017-08-15T13:58:04.280Z,34.60
2017-08-15T14:00:31.821Z,34.40
2017-08-15T14:02:59.335Z,34.60
2017-08-15T14:05:26.893Z,35.00
2017-08-15T14:07:54.394Z,35.80
2017-08-15T14:10:21.902Z,36.10
2017-08-15T14:12:49.457Z,35.90
2017-08-15T14:15:16.951Z,35.70
2017-08-15T14:17:44.456Z,35.40
2017-08-15T14:20:11.967Z,34.90
2017-08-15T14:22:39.465Z,34.40
2017-08-15T14:25:07.001Z,34.30
2017-08-15T14:27:34.494Z,34.30
2017-08-15T14:30:02.008Z,34.10
2017-08-15T14:32:29.561Z,33.90
2017-08-15T14:34:57.053Z,33.50
2017-08-15T14:37:24.554Z,33.30
2017-08-15T14:39:52.858Z,32.80
2017-08-15T14:42:20.405Z,32.80
2017-08-15T14:44:47.980Z,32.70
2017-08-15T14:47:15.533Z,32.50
2017-08-15T14:49:43.058Z,32.30
2017-08-15T14:52:11.365Z,32.20
2017-08-15T14:54:38.913Z,32.20
2017-08-15T14:57:06.426Z,32.10
2017-08-15T14:59:33.914Z,32.00
2017-08-15T15:02:01.463Z,31.90
2017-08-15T15:04:28.974Z,31.80
2017-08-15T15:06:56.456Z,31.60
2017-08-15T15:09:23.961Z,31.50
2017-08-15T15:11:52.236Z,31.40
2017-08-15T15:14:19.795Z,31.40
2017-08-15T15:16:47.303Z,31.40
2017-08-15T15:19:14.817Z,31.40
2017-08-15T15:21:43.091Z,31.30
2017-08-15T15:24:11.372Z,31.30
2017-08-15T15:26:38.890Z,31.30
2017-08-15T15:29:06.425Z,31.20
2017-08-15T15:31:33.959Z,31.20
2017-08-15T15:34:02.629Z,31.10
2017-08-15T15:36:30.947Z,31.30
2017-08-15T15:38:59.173Z,31.30
2017-08-15T15:41:26.688Z,31.30
2017-08-15T15:43:54.190Z,31.40
2017-08-15T15:46:21.717Z,31.20
2017-08-15T15:48:49.222Z,31.30
2017-08-15T15:51:17.526Z,31.30
2017-08-15T15:53:45.045Z,31.20
2017-08-15T15:56:12.632Z,31.30
2017-08-15T15:58:40.134Z,31.60
2017-08-15T16:01:07.784Z,31.80
2017-08-15T16:03:35.317Z,32.10
2017-08-15T16:06:02.821Z,32.50
2017-08-15T16:08:30.317Z,32.70
2017-08-15T16:10:58.639Z,32.60
2017-08-15T16:13:26.220Z,32.60
2017-08-15T16:15:53.856Z,32.40
2017-08-15T16:18:21.392Z,32.20
2017-08-15T16:20:48.909Z,32.00
2017-08-15T16:23:16.487Z,32.10
2017-08-15T16:25:44.847Z,32.10
2017-08-15T16:28:12.331Z,32.10
2017-08-15T16:30:39.906Z,32.10
2017-08-15T16:33:07.410Z,32.00
2017-08-15T16:35:34.908Z,31.80
2017-08-15T16:38:02.410Z,31.80
2017-08-15T16:40:29.959Z,31.70
2017-08-15T16:42:57.496Z,31.70
2017-08-15T16:45:25.020Z,31.60
2017-08-15T16:47:52.559Z,31.40
2017-08-15T16:50:20.125Z,31.40
2017-08-15T16:52:47.639Z,31.30
2017-08-15T16:55:15.205Z,31.10
2017-08-15T16:57:42.872Z,31.00
2017-08-15T17:00:10.483Z,30.80
2017-08-15T17:02:38.054Z,30.60
2017-08-15T17:05:05.591Z,30.40
2017-08-15T17:07:33.168Z,30.40
2017-08-15T17:10:00.691Z,30.30
2017-08-15T17:12:28.289Z,30.40
2017-08-15T17:14:55.811Z,30.30
2017-08-15T17:17:23.349Z,30.30
2017-08-15T17:19:51.216Z,30.30
2017-08-15T17:22:18.743Z,30.10
2017-08-15T17:24:46.289Z,30.00
2017-08-15T17:27:14.036Z,29.90
2017-08-15T17:29:41.601Z,29.90
2017-08-15T17:32:09.130Z,29.80
2017-08-15T17:34:36.715Z,29.80
2017-08-15T17:37:04.245Z,29.70
2017-08-15T17:39:31.790Z,29.60
2017-08-15T17:42:00.114Z,29.50
2017-08-15T17:44:27.638Z,29.50
2017-08-15T17:46:55.142Z,29.40
2017-08-15T17:49:22.869Z,29.40
2017-08-15T17:51:50.374Z,29.30
2017-08-15T17:54:17.865Z,29.30
2017-08-15T17:56:45.369Z,29.20
2017-08-15T17:59:12.945Z,29.10
2017-08-15T18:01:40.456Z,29.00
2017-08-15T18:04:07.990Z,28.90
2017-08-15T18:06:35.528Z,28.80
2017-08-15T18:09:03.027Z,28.60
2017-08-15T18:11:30.539Z,28.50
2017-08-15T18:13:58.038Z,28.40
2017-08-15T18:16:26.311Z,28.40
2017-08-15T18:18:53.826Z,28.30
2017-08-15T18:21:21.360Z,28.30
2017-08-15T18:23:48.901Z,28.20
2017-08-15T18:26:17.191Z,27.90
2017-08-15T18:28:44.699Z,27.80
2017-08-15T18:31:12.215Z,27.80
2017-08-15T18:33:39.727Z,27.70
2017-08-15T18:36:07.239Z,27.60
2017-08-15T18:38:34.732Z,27.60
2017-08-15T18:41:02.254Z,27.50
2017-08-15T18:43:29.762Z,27.40
2017-08-15T18:45:58.061Z,27.40
2017-08-15T18:48:26.429Z,27.30
2017-08-15T18:50:53.979Z,27.30
2017-08-15T18:53:21.508Z,27.30
2017-08-15T18:55:49.071Z,27.20
2017-08-15T18:58:16.565Z,27.20
2017-08-15T19:00:44.073Z,27.10
2017-08-15T19:03:11.817Z,27.10
2017-08-15T19:05:39.325Z,26.90
2017-08-15T19:08:06.846Z,26.80
2017-08-15T19:10:34.377Z,26.80
2017-08-15T19:13:01.927Z,26.70
2017-08-15T19:15:29.454Z,26.70
2017-08-15T19:17:56.966Z,26.60
2017-08-15T19:20:24.493Z,26.50
2017-08-15T19:22:52.042Z,26.40
2017-08-15T19:25:19.670Z,26.40
2017-08-15T19:27:47.206Z,26.40
2017-08-15T19:30:14.868Z,26.40
2017-08-15T19:32:42.387Z,26.40
2017-08-15T19:35:10.208Z,26.40
2017-08-15T19:37:37.758Z,26.40
2017-08-15T19:40:06.064Z,26.30
2017-08-15T19:42:33.636Z,26.20
2017-08-15T19:45:01.163Z,26.20
2017-08-15T19:47:29.400Z,26.10
2017-08-15T19:49:56.916Z,26.00
2017-08-15T19:52:25.197Z,26.10
2017-08-15T19:54:52.751Z,26.00
2017-08-15T19:57:20.294Z,26.00
2017-08-15T19:59:47.830Z,26.00
2017-08-15T20:02:15.397Z,26.00
2017-08-15T20:04:43.672Z,25.90
2017-08-15T20:07:11.169Z,25.90
2017-08-15T20:09:38.698Z,25.80
2017-08-15T20:12:06.240Z,25.80
2017-08-15T20:14:33.739Z,25.80
2017-08-15T20:17:01.294Z,25.80
2017-08-15T20:19:28.797Z,25.70
2017-08-15T20:21:56.514Z,25.60
2017-08-15T20:24:24.540Z,25.70
2017-08-15T20:26:52.050Z,25.70
2017-08-15T20:29:19.562Z,25.70
2017-08-15T20:31:47.077Z,25.60
2017-08-15T20:34:14.681Z,25.50
2017-08-15T20:36:42.189Z,25.50
2017-08-15T20:39:09.720Z,25.50
2017-08-15T20:41:39.064Z,25.50
2017-08-15T20:44:06.618Z,25.50
2017-08-15T20:46:34.245Z,25.60
2017-08-15T20:49:01.755Z,25.60
2017-08-15T20:51:29.248Z,25.60
2017-08-15T20:53:56.764Z,25.50
2017-08-15T20:56:24.265Z,25.40
2017-08-15T20:58:51.803Z,25.40
2017-08-15T21:01:19.305Z,25.30
2017-08-15T21:03:47.723Z,25.40
2017-08-15T21:06:15.258Z,25.30
2017-08-15T21:08:43.558Z,25.30
2017-08-15T21:11:11.468Z,25.30
2017-08-15T21:13:39.020Z,25.30
2017-08-15T21:16:06.585Z,25.30
2017-08-15T21:18:34.147Z,25.30
2017-08-15T21:21:01.666Z,25.30
2017-08-15T21:23:29.212Z,25.30
2017-08-15T21:25:56.740Z,25.40
2017-08-15T21:28:24.300Z,25.40
2017-08-15T21:30:51.835Z,25.30
2017-08-15T21:33:19.325Z,25.20
2017-08-15T21:35:51.005Z,25.20
2017-08-15T21:38:18.615Z,25.20
2017-08-15T21:40:46.159Z,25.20
2017-08-15T21:43:13.720Z,25.20
2017-08-15T21:45:41.342Z,25.20
2017-08-15T21:48:08.855Z,25.10
2017-08-15T21:50:36.509Z,25.00
2017-08-15T21:53:03.995Z,25.00
2017-08-15T21:55:31.499Z,25.00
2017-08-15T21:57:59.140Z,25.00
2017-08-15T22:00:26.652Z,25.10
2017-08-15T22:05:30.971Z,25.10
2017-08-15T22:07:58.597Z,25.10
2017-08-15T22:10:26.512Z,25.10
2017-08-15T22:12:54.038Z,25.00
2017-08-15T22:15:21.545Z,25.00
2017-08-15T22:17:49.070Z,25.00
2017-08-15T22:20:16.579Z,25.00
2017-08-15T22:22:44.085Z,24.90
2017-08-15T22:25:11.626Z,25.00
2017-08-15T22:27:39.142Z,25.00
2017-08-15T22:30:06.673Z,25.00
2017-08-15T22:32:34.187Z,24.90
2017-08-15T22:35:01.717Z,24.80
2017-08-15T22:37:29.224Z,24.80
2017-08-15T22:39:56.741Z,24.70
2017-08-15T22:42:24.274Z,24.50
2017-08-15T22:44:51.777Z,24.50
2017-08-15T22:47:19.344Z,24.70
2017-08-15T22:49:46.877Z,24.70
2017-08-15T22:52:14.484Z,24.70
2017-08-15T22:54:42.132Z,24.70
2017-08-15T22:57:09.672Z,24.40
2017-08-15T22:59:37.223Z,24.40
2017-08-15T23:02:04.737Z,24.40
2017-08-15T23:04:32.254Z,24.40
2017-08-15T23:06:59.756Z,24.30
2017-08-15T23:09:27.319Z,24.30
2017-08-15T23:11:54.819Z,24.20
2017-08-15T23:14:22.339Z,24.10
2017-08-15T23:16:49.877Z,24.10
2017-08-15T23:19:17.382Z,24.10
2017-08-15T23:21:44.888Z,24.10
2017-08-15T23:24:13.167Z,24.10
2017-08-15T23:26:41.454Z,24.20
2017-08-15T23:29:08.949Z,24.10
2017-08-15T23:31:36.459Z,24.20
2017-08-15T23:34:04.000Z,24.20
2017-08-15T23:36:31.526Z,24.20
2017-08-15T23:38:59.032Z,24.20
2017-08-15T23:41:26.567Z,24.30
2017-08-15T23:43:54.091Z,24.20
2017-08-15T23:46:21.650Z,24.10
2017-08-15T23:48:49.166Z,24.10
2017-08-15T23:51:17.453Z,24.10
2017-08-15T23:53:45.927Z,24.00
2017-08-15T23:56:13.538Z,24.00
2017-08-15T23:58:41.103Z,24.00
